createdAt,value
2022-09-03T00:00:14.387Z,9.309106
2022-09-03T00:01:14.402Z,9.309027
2022-09-03T00:02:14.374Z,9.308992
2022-09-03T00:03:14.375Z,9.309014
2022-09-03T00:04:14.428Z,9.309011
2022-09-03T00:05:15.417Z,9.309073
2022-09-03T00:06:14.315Z,9.309090
2022-09-03T00:07:14.360Z,9.309006
2022-09-03T00:08:14.422Z,9.309010
2022-09-03T00:09:14.372Z,9.308965
2022-09-03T00:10:15.646Z,9.309011
2022-09-03T00:11:14.318Z,9.309059
2022-09-03T00:12:14.312Z,9.309044
2022-09-03T00:13:14.216Z,9.308992
2022-09-03T00:14:15.269Z,9.309066
2022-09-03T00:15:14.220Z,9.309037
2022-09-03T00:16:14.251Z,9.308983
2022-09-03T00:17:14.175Z,9.309049
2022-09-03T00:18:14.183Z,9.308969
2022-09-03T00:19:14.217Z,9.309048
2022-09-03T00:20:14.136Z,9.309010
2022-09-03T00:21:14.157Z,9.308957
2022-09-03T00:22:14.137Z,9.308928
2022-09-03T00:23:14.162Z,9.309011
2022-09-03T00:24:15.164Z,9.308967
2022-09-03T00:25:14.155Z,9.308967
2022-09-03T00:26:15.248Z,9.309001
2022-09-03T00:27:14.137Z,9.308996
2022-09-03T00:28:14.178Z,9.308990
2022-09-03T00:29:14.157Z,9.308987
2022-09-03T00:30:16.961Z,9.309038
2022-09-03T00:31:14.191Z,9.309034
2022-09-03T00:32:15.138Z,9.308999
2022-09-03T00:33:14.186Z,9.309029
2022-09-03T00:34:14.136Z,9.309029
2022-09-03T00:35:14.175Z,9.309082
2022-09-03T00:36:14.136Z,9.309123
2022-09-03T00:37:15.640Z,9.309098
2022-09-03T00:38:14.077Z,9.309033
2022-09-03T00:39:14.138Z,9.309050
2022-09-03T00:40:14.131Z,9.309064
2022-09-03T00:41:14.162Z,9.309037
2022-09-03T00:42:14.039Z,9.309041
2022-09-03T00:43:14.083Z,9.309052
2022-09-03T00:44:14.007Z,9.309161
2022-09-03T00:45:14.142Z,9.309188
2022-09-03T00:46:13.999Z,9.309126
2022-09-03T00:47:14.070Z,9.309123
2022-09-03T00:48:14.130Z,9.309114
2022-09-03T00:49:13.996Z,9.309113
2022-09-03T00:50:14.038Z,9.309134
2022-09-03T00:51:13.977Z,9.309121
2022-09-03T00:52:13.997Z,9.309156
2022-09-03T00:53:14.013Z,9.309144
2022-09-03T00:54:13.954Z,9.309141
2022-09-03T00:55:14.017Z,9.309166
2022-09-03T00:56:13.945Z,9.309144
2022-09-03T00:57:14.012Z,9.309127
2022-09-03T00:58:13.985Z,9.309089
2022-09-03T00:59:13.860Z,9.309129
2022-09-03T01:00:13.846Z,9.309110
2022-09-03T01:01:14.068Z,9.309132
2022-09-03T01:02:14.086Z,9.309151
2022-09-03T01:03:13.856Z,9.309118
2022-09-03T01:04:13.943Z,9.309104
2022-09-03T01:05:13.946Z,9.309117
2022-09-03T01:06:14.896Z,9.309117
2022-09-03T01:07:14.582Z,9.309070
2022-09-03T01:08:13.891Z,9.309143
2022-09-03T01:09:13.965Z,9.309183
2022-09-03T01:10:13.867Z,9.309116
2022-09-03T01:11:14.003Z,9.309092
2022-09-03T01:12:13.833Z,9.309067
2022-09-03T01:13:13.869Z,9.309103
2022-09-03T01:14:13.851Z,9.309077
2022-09-03T01:15:13.816Z,9.309067
2022-09-03T01:16:14.879Z,9.309107
2022-09-03T01:17:13.731Z,9.309015
2022-09-03T01:18:13.781Z,9.309007
2022-09-03T01:19:13.807Z,9.309022
2022-09-03T01:20:13.691Z,9.309102
2022-09-03T01:21:13.747Z,9.308981
2022-09-03T01:22:13.845Z,9.309095
2022-09-03T01:23:13.760Z,9.309159
2022-09-03T01:24:13.661Z,9.309114
2022-09-03T01:25:13.805Z,9.309077
2022-09-03T01:26:13.838Z,9.309014
2022-09-03T01:27:13.771Z,9.309119
2022-09-03T01:28:13.813Z,9.309310
2022-09-03T01:29:13.742Z,9.309186
2022-09-03T01:30:13.823Z,9.309181
2022-09-03T01:31:13.724Z,9.309076
2022-09-03T01:32:13.791Z,9.309164
2022-09-03T01:33:13.697Z,9.309188
2022-09-03T01:34:13.716Z,9.309167
2022-09-03T01:35:13.714Z,9.309050
2022-09-03T01:36:13.661Z,9.309060
2022-09-03T01:37:13.679Z,9.309097
2022-09-03T01:38:13.692Z,9.309196
2022-09-03T01:39:13.718Z,9.309243
2022-09-03T01:40:13.692Z,9.309093
2022-09-03T01:41:13.689Z,9.308985
2022-09-03T01:42:13.653Z,9.309010
2022-09-03T01:43:13.580Z,9.309092
2022-09-03T01:44:13.562Z,9.308949
2022-09-03T01:45:13.673Z,9.308956
2022-09-03T01:46:13.582Z,9.308982
2022-09-03T01:47:13.642Z,9.309047
2022-09-03T01:48:13.586Z,9.308880
2022-09-03T01:49:13.737Z,9.308854
2022-09-03T01:50:13.586Z,9.308900
2022-09-03T01:51:13.479Z,9.308947
2022-09-03T01:52:13.585Z,9.309024
2022-09-03T01:53:13.579Z,9.309063
2022-09-03T01:54:20.784Z,9.309064
2022-09-03T01:55:15.601Z,9.309074
2022-09-03T01:56:13.545Z,9.308921
2022-09-03T01:57:29.165Z,9.308894
2022-09-03T01:58:14.451Z,9.308890
2022-09-03T01:59:13.515Z,9.308929
2022-09-03T02:00:13.557Z,9.308973
2022-09-03T02:01:13.523Z,9.309025
2022-09-03T02:02:13.528Z,9.308976
2022-09-03T02:03:13.475Z,9.308946
2022-09-03T02:04:13.487Z,9.309030
2022-09-03T02:05:13.497Z,9.309006
2022-09-03T02:06:13.489Z,9.308999
2022-09-03T02:07:13.467Z,9.309080
2022-09-03T02:08:13.391Z,9.308962
2022-09-03T02:09:13.372Z,9.309017
2022-09-03T02:10:13.351Z,9.309060
2022-09-03T02:11:13.449Z,9.308976
2022-09-03T02:12:13.312Z,9.308997
2022-09-03T02:13:13.313Z,9.309002
2022-09-03T02:14:13.319Z,9.309018
2022-09-03T02:15:13.368Z,9.308978
2022-09-03T02:16:13.506Z,9.309011
2022-09-03T02:17:13.382Z,9.309009
2022-09-03T02:18:13.358Z,9.309029
2022-09-03T02:19:13.361Z,9.309029
2022-09-03T02:20:13.373Z,9.309128
2022-09-03T02:21:13.385Z,9.309159
2022-09-03T02:22:13.322Z,9.309036
2022-09-03T02:23:13.339Z,9.309032
2022-09-03T02:24:13.336Z,9.309012
2022-09-03T02:25:13.315Z,9.308990
2022-09-03T02:26:13.328Z,9.309038
2022-09-03T02:27:13.371Z,9.309040
2022-09-03T02:28:17.270Z,9.309016
2022-09-03T02:29:13.333Z,9.309010
2022-09-03T02:30:13.290Z,9.309088
2022-09-03T02:31:13.449Z,9.309083
2022-09-03T02:32:13.304Z,9.309066
2022-09-03T02:33:13.267Z,9.309072
2022-09-03T02:34:13.257Z,9.309029
2022-09-03T02:35:13.454Z,9.308998
2022-09-03T02:36:13.492Z,9.308978
2022-09-03T02:37:13.163Z,9.308981
2022-09-03T02:38:14.168Z,9.309046
2022-09-03T02:39:13.226Z,9.309078
2022-09-03T02:40:13.141Z,9.309110
2022-09-03T02:41:13.144Z,9.309093
2022-09-03T02:42:13.150Z,9.309059
2022-09-03T02:43:13.100Z,9.308999
2022-09-03T02:44:14.089Z,9.308997
2022-09-03T02:45:13.065Z,9.309019
2022-09-03T02:46:13.259Z,9.309070
2022-09-03T02:47:13.173Z,9.309096
2022-09-03T02:48:13.159Z,9.309010
2022-09-03T02:49:13.153Z,9.309013
2022-09-03T02:50:13.174Z,9.309121
2022-09-03T02:51:14.386Z,9.309123
2022-09-03T02:52:13.222Z,9.309142
2022-09-03T02:53:13.106Z,9.309094
2022-09-03T02:54:14.921Z,9.309039
2022-09-03T02:55:13.110Z,9.309023
2022-09-03T02:56:13.096Z,9.309052
2022-09-03T02:57:13.114Z,9.309028
2022-09-03T02:58:13.131Z,9.309001
2022-09-03T02:59:13.950Z,9.309048
2022-09-03T03:00:13.065Z,9.309006
2022-09-03T03:01:19.698Z,9.309054
2022-09-03T03:02:14.075Z,9.309071
2022-09-03T03:03:12.980Z,9.309103
2022-09-03T03:04:12.952Z,9.309026
2022-09-03T03:05:12.952Z,9.308993
2022-09-03T03:06:12.973Z,9.308980
2022-09-03T03:07:12.917Z,9.308915
2022-09-03T03:08:12.944Z,9.308961
2022-09-03T03:09:12.926Z,9.309050
2022-09-03T03:10:12.908Z,9.309086
2022-09-03T03:11:12.899Z,9.309048
2022-09-03T03:12:12.882Z,9.309294
2022-09-03T03:13:12.883Z,9.309021
2022-09-03T03:14:12.929Z,9.309020
2022-09-03T03:15:13.008Z,9.309061
2022-09-03T03:16:12.963Z,9.309104
2022-09-03T03:17:12.940Z,9.309165
2022-09-03T03:18:12.928Z,9.309052
2022-09-03T03:19:12.982Z,9.309133
2022-09-03T03:20:12.905Z,9.309068
2022-09-03T03:21:12.897Z,9.309017
2022-09-03T03:22:12.926Z,9.309021
2022-09-03T03:23:12.882Z,9.309212
2022-09-03T03:24:12.912Z,9.309126
2022-09-03T03:25:13.917Z,9.309037
2022-09-03T03:26:12.868Z,9.309055
2022-09-03T03:27:12.845Z,9.309092
2022-09-03T03:28:12.862Z,9.309122
2022-09-03T03:29:12.867Z,9.308981
2022-09-03T03:30:12.893Z,9.308988
2022-09-03T03:31:12.850Z,9.308981
2022-09-03T03:32:12.729Z,9.309005
2022-09-03T03:33:13.854Z,9.309116
2022-09-03T03:34:12.733Z,9.309022
2022-09-03T03:35:12.738Z,9.309034
2022-09-03T03:36:12.688Z,9.309065
2022-09-03T03:37:12.804Z,9.308973
2022-09-03T03:38:12.866Z,9.309102
2022-09-03T03:39:13.473Z,9.309024
2022-09-03T03:40:12.795Z,9.309073
2022-09-03T03:41:12.781Z,9.309080
2022-09-03T03:42:12.791Z,9.308926
2022-09-03T03:43:12.770Z,9.309083
2022-09-03T03:44:12.749Z,9.308949
2022-09-03T03:45:12.725Z,9.309013
2022-09-03T03:46:12.849Z,9.309160
2022-09-03T03:47:12.772Z,9.309063
2022-09-03T03:48:12.714Z,9.309020
2022-09-03T03:49:12.723Z,9.309010
2022-09-03T03:50:12.676Z,9.308936
2022-09-03T03:51:12.703Z,9.309121
2022-09-03T03:52:12.680Z,9.309016
2022-09-03T03:53:12.675Z,9.309077
2022-09-03T03:54:12.908Z,9.308951
2022-09-03T03:55:12.677Z,9.308872
2022-09-03T03:56:12.693Z,9.308938
2022-09-03T03:57:12.666Z,9.309235
2022-09-03T03:58:12.569Z,9.309295
2022-09-03T03:59:12.564Z,9.309208
2022-09-03T04:00:12.526Z,9.309065
2022-09-03T04:01:12.549Z,9.309036
2022-09-03T04:02:12.619Z,9.309019
2022-09-03T04:03:12.498Z,9.309128
2022-09-03T04:04:12.547Z,9.308951
2022-09-03T04:05:12.496Z,9.308983
2022-09-03T04:06:12.617Z,9.308943
2022-09-03T04:07:12.656Z,9.308928
2022-09-03T04:08:12.581Z,9.308938
2022-09-03T04:09:12.578Z,9.308891
2022-09-03T04:10:12.576Z,9.309043
2022-09-03T04:11:12.568Z,9.309045
2022-09-03T04:12:12.580Z,9.308995
2022-09-03T04:13:12.522Z,9.309081
2022-09-03T04:14:12.566Z,9.309101
2022-09-03T04:15:12.518Z,9.309011
2022-09-03T04:16:12.566Z,9.308894
2022-09-03T04:17:12.501Z,9.309006
2022-09-03T04:18:12.589Z,9.309015
2022-09-03T04:19:12.494Z,9.308912
2022-09-03T04:20:12.424Z,9.308946
2022-09-03T04:21:12.411Z,9.309029
2022-09-03T04:22:12.374Z,9.308974
2022-09-03T04:23:12.390Z,9.309088
2022-09-03T04:24:12.469Z,9.309096
2022-09-03T04:25:12.352Z,9.309114
2022-09-03T04:26:12.443Z,9.309015
2022-09-03T04:27:12.447Z,9.308971
2022-09-03T04:28:12.472Z,9.309082
2022-09-03T04:29:12.444Z,9.309091
2022-09-03T04:30:12.423Z,9.308990
2022-09-03T04:31:12.438Z,9.308952
2022-09-03T04:32:12.365Z,9.308946
2022-09-03T04:33:16.157Z,9.308992
2022-09-03T04:34:12.402Z,9.309063
2022-09-03T04:35:12.392Z,9.309065
2022-09-03T04:36:12.388Z,9.309063
2022-09-03T04:37:12.352Z,9.309048
2022-09-03T04:38:12.348Z,9.308991
2022-09-03T04:39:12.423Z,9.308999
2022-09-03T04:40:12.341Z,9.309047
2022-09-03T04:41:12.380Z,9.309080
2022-09-03T04:42:13.329Z,9.309031
2022-09-03T04:43:12.368Z,9.308977
2022-09-03T04:44:12.357Z,9.308993
2022-09-03T04:45:12.288Z,9.308922
2022-09-03T04:46:16.090Z,9.308981
2022-09-03T04:47:13.316Z,9.309031
2022-09-03T04:48:12.205Z,9.309082
2022-09-03T04:49:12.223Z,9.309075
2022-09-03T04:50:12.201Z,9.309113
2022-09-03T04:51:12.202Z,9.309079
2022-09-03T04:52:12.255Z,9.309012
2022-09-03T04:53:12.256Z,9.309025
2022-09-03T04:54:12.134Z,9.309166
2022-09-03T04:55:12.271Z,9.309135
2022-09-03T04:56:12.821Z,9.309077
2022-09-03T04:57:12.769Z,9.309060
2022-09-03T04:58:44.318Z,9.309023
2022-09-03T04:59:44.867Z,9.309070
2022-09-03T05:00:45.283Z,9.309117
2022-09-03T05:01:44.187Z,9.309105
2022-09-03T05:02:44.180Z,9.309055
2022-09-03T05:03:12.073Z,9.309032
2022-09-03T05:04:12.186Z,9.309068
2022-09-03T05:05:12.134Z,9.309055
2022-09-03T05:06:13.255Z,9.309057
2022-09-03T05:07:13.057Z,9.309017
2022-09-03T05:08:12.143Z,9.309078
2022-09-03T05:09:12.142Z,9.309017
2022-09-03T05:10:12.143Z,9.309099
2022-09-03T05:11:12.098Z,9.309007
2022-09-03T05:12:12.004Z,9.309089
2022-09-03T05:13:12.010Z,9.309040
2022-09-03T05:14:12.077Z,9.309081
2022-09-03T05:15:12.008Z,9.309106
2022-09-03T05:16:12.057Z,9.309014
2022-09-03T05:17:11.981Z,9.309000
2022-09-03T05:18:12.097Z,9.309052
2022-09-03T05:19:11.970Z,9.309062
2022-09-03T05:20:12.026Z,9.308975
2022-09-03T05:21:12.284Z,9.308996
2022-09-03T05:22:12.023Z,9.309107
2022-09-03T05:23:12.033Z,9.308985
2022-09-03T05:24:12.054Z,9.309027
2022-09-03T05:25:12.122Z,9.308992
2022-09-03T05:26:12.008Z,9.309000
2022-09-03T05:27:12.101Z,9.308978
2022-09-03T05:28:12.000Z,9.308954
2022-09-03T05:29:12.569Z,9.309059
2022-09-03T05:30:12.026Z,9.309123
2022-09-03T05:31:12.020Z,9.308964
2022-09-03T05:32:12.011Z,9.309007
2022-09-03T05:33:11.949Z,9.309052
2022-09-03T05:34:16.668Z,9.309011
2022-09-03T05:35:12.945Z,9.308998
2022-09-03T05:36:11.869Z,9.309001
2022-09-03T05:37:11.868Z,9.309057
2022-09-03T05:38:11.875Z,9.308978
2022-09-03T06:56:02.721Z,9.309198
2022-09-03T06:57:02.713Z,9.309107
2022-09-03T06:58:02.789Z,9.309137
2022-09-03T06:59:02.691Z,9.309081
2022-09-03T07:00:02.760Z,9.309072
2022-09-03T07:01:02.782Z,9.309081
2022-09-03T07:02:02.818Z,9.309095
2022-09-03T07:03:02.600Z,9.309158
2022-09-03T07:04:02.635Z,9.309095
2022-09-03T07:05:02.609Z,9.309112
2022-09-03T07:06:02.664Z,9.309122
2022-09-03T07:07:02.545Z,9.309126
2022-09-03T07:08:02.514Z,9.309150
2022-09-03T07:09:02.613Z,9.309094
2022-09-03T07:10:02.602Z,9.309091
2022-09-03T07:11:02.643Z,9.309031
2022-09-03T07:12:02.608Z,9.309019
2022-09-03T07:13:02.617Z,9.309011
2022-09-03T07:14:02.648Z,9.309085
2022-09-03T07:15:02.583Z,9.309016
2022-09-03T07:16:02.785Z,9.308990
2022-09-03T07:17:02.596Z,9.308970
2022-09-03T07:18:02.618Z,9.308965
2022-09-03T07:19:02.567Z,9.309031
2022-09-03T07:20:02.652Z,9.309063
2022-09-03T07:21:02.635Z,9.309095
2022-09-03T07:22:02.561Z,9.309055
2022-09-03T07:23:02.587Z,9.309026
2022-09-03T07:24:02.521Z,9.309089
2022-09-03T07:25:02.584Z,9.309048
2022-09-03T07:26:02.439Z,9.309034
2022-09-03T07:27:02.444Z,9.309106
2022-09-03T07:28:02.439Z,9.309069
2022-09-03T07:29:02.398Z,9.309014
2022-09-03T07:30:02.503Z,9.309069
2022-09-03T07:31:02.498Z,9.309130
2022-09-03T07:32:02.554Z,9.309010
2022-09-03T07:33:02.476Z,9.309014
2022-09-03T07:34:02.448Z,9.309007
2022-09-03T07:35:02.456Z,9.309023
2022-09-03T07:36:02.478Z,9.309055
2022-09-03T07:37:02.512Z,9.309031
2022-09-03T07:38:02.450Z,9.308972
2022-09-03T07:39:02.697Z,9.308978
2022-09-03T07:40:02.503Z,9.308980
2022-09-03T07:41:02.468Z,9.308936
2022-09-03T07:42:02.473Z,9.308955
2022-09-03T07:43:02.434Z,9.308986
2022-09-03T07:44:02.396Z,9.309007
2022-09-03T07:45:02.355Z,9.309073
2022-09-03T07:46:02.377Z,9.309061
2022-09-03T07:47:02.445Z,9.308989
2022-09-03T07:48:02.388Z,9.308958
2022-09-03T07:49:02.376Z,9.308893
2022-09-03T07:50:02.374Z,9.308997
2022-09-03T07:51:03.097Z,9.308971
2022-09-03T07:52:02.290Z,9.309013
2022-09-03T07:53:02.220Z,9.309050
2022-09-03T07:54:02.369Z,9.309102
2022-09-03T07:55:02.384Z,9.309072
2022-09-03T07:56:02.311Z,9.309084
2022-09-03T07:57:02.363Z,9.309052
2022-09-03T07:58:02.337Z,9.309093
2022-09-03T07:59:02.296Z,9.309068
2022-09-03T08:00:02.304Z,9.309049
2022-09-03T08:01:02.331Z,9.309073
2022-09-03T08:02:02.337Z,9.309071
2022-09-03T08:03:02.298Z,9.309092
2022-09-03T08:04:02.386Z,9.309042
2022-09-03T08:05:02.238Z,9.309009
2022-09-03T08:06:02.281Z,9.309043
2022-09-03T08:07:02.252Z,9.309045
2022-09-03T08:08:02.279Z,9.308949
2022-09-03T08:09:05.031Z,9.308948
2022-09-03T08:10:03.120Z,9.308944
2022-09-03T08:11:02.108Z,9.308924
2022-09-03T08:12:02.111Z,9.308970
2022-09-03T08:13:02.146Z,9.308998
2022-09-03T08:14:02.062Z,9.309003
2022-09-03T08:15:02.180Z,9.308978
2022-09-03T08:16:02.205Z,9.308968
2022-09-03T08:17:02.169Z,9.308939
2022-09-03T08:18:03.666Z,9.309034
2022-09-03T08:19:02.249Z,9.309040
2022-09-03T08:20:02.171Z,9.309035
2022-09-03T08:21:02.187Z,9.309016
2022-09-03T08:22:02.114Z,9.309041
2022-09-03T08:23:02.160Z,9.309043
2022-09-03T08:24:02.108Z,9.309043
2022-09-03T08:25:34.058Z,9.308990
2022-09-03T08:26:34.121Z,9.308971
2022-09-03T08:27:34.050Z,9.309028
2022-09-03T08:28:01.996Z,9.308939
2022-09-03T08:29:05.726Z,9.308913
2022-09-03T08:30:01.966Z,9.308948
2022-09-03T08:31:02.121Z,9.309096
2022-09-03T08:32:05.100Z,9.309037
2022-09-03T08:33:03.075Z,9.308983
2022-09-03T08:34:02.024Z,9.309060
2022-09-03T08:35:02.057Z,9.308877
2022-09-03T08:36:02.021Z,9.308967
2022-09-03T08:37:01.934Z,9.309042
2022-09-03T08:38:01.904Z,9.309012
2022-09-03T08:39:01.893Z,9.309048
2022-09-03T08:40:02.067Z,9.308956
2022-09-03T08:41:01.940Z,9.308899
2022-09-03T08:42:01.986Z,9.308993
2022-09-03T08:43:06.572Z,9.309058
2022-09-03T08:44:03.140Z,9.309012
2022-09-03T08:45:02.006Z,9.309003
2022-09-03T08:46:02.010Z,9.309056
2022-09-03T08:47:01.946Z,9.309037
2022-09-03T08:48:02.023Z,9.309058
2022-09-03T08:49:01.921Z,9.309034
2022-09-03T08:50:01.960Z,9.309018
2022-09-03T08:51:01.885Z,9.309050
2022-09-03T08:52:02.977Z,9.309014
2022-09-03T08:53:01.898Z,9.309011
2022-09-03T08:54:01.851Z,9.309020
2022-09-03T08:55:01.816Z,9.309041
2022-09-03T08:56:01.809Z,9.309033
2022-09-03T08:57:01.780Z,9.309034
2022-09-03T08:58:01.752Z,9.309037
2022-09-03T08:59:01.746Z,9.309045
2022-09-03T09:00:01.767Z,9.309070
2022-09-03T09:01:01.970Z,9.309062
2022-09-03T09:02:01.948Z,9.309070
2022-09-03T09:03:01.794Z,9.309053
2022-09-03T09:04:01.841Z,9.309097
2022-09-03T09:05:01.848Z,9.309061
2022-09-03T09:06:01.843Z,9.309018
2022-09-03T09:07:01.882Z,9.309026
2022-09-03T09:08:01.805Z,9.309036
2022-09-03T09:09:01.840Z,9.309056
2022-09-03T09:10:01.815Z,9.309029
2022-09-03T09:11:01.871Z,9.309034
2022-09-03T09:12:01.764Z,9.308993
2022-09-03T09:13:01.772Z,9.309019
2022-09-03T09:14:01.767Z,9.308990
2022-09-03T09:15:01.754Z,9.308990
2022-09-03T09:16:01.853Z,9.308992
2022-09-03T09:17:01.772Z,9.308962
2022-09-03T09:18:01.744Z,9.309016
2022-09-03T09:19:01.806Z,9.308981
2022-09-03T09:20:01.611Z,9.308982
2022-09-03T09:21:01.606Z,9.309013
2022-09-03T09:22:01.633Z,9.309099
2022-09-03T09:23:01.634Z,9.308986
2022-09-03T09:24:01.606Z,9.308926
2022-09-03T09:25:01.602Z,9.308953
2022-09-03T09:26:01.573Z,9.308981
2022-09-03T09:27:01.597Z,9.309005
2022-09-03T09:28:01.570Z,9.308989
2022-09-03T09:29:01.563Z,9.308909
2022-09-03T09:30:01.686Z,9.309022
2022-09-03T09:31:01.744Z,9.308933
2022-09-03T09:32:02.140Z,9.308892
2022-09-03T09:33:01.625Z,9.308970
2022-09-03T09:34:01.698Z,9.308958
2022-09-03T09:35:01.624Z,9.308915
2022-09-03T09:36:01.834Z,9.308923
2022-09-03T09:37:01.572Z,9.308981
2022-09-03T09:38:01.633Z,9.308932
2022-09-03T09:39:01.558Z,9.308901
2022-09-03T09:40:01.625Z,9.308943
2022-09-03T09:41:01.624Z,9.308927
2022-09-03T09:42:01.566Z,9.308997
2022-09-03T09:43:01.576Z,9.309064
2022-09-03T09:44:01.536Z,9.308957
2022-09-03T09:45:01.439Z,9.308924
2022-09-03T09:46:01.520Z,9.308980
2022-09-03T09:47:01.434Z,9.308972
2022-09-03T09:48:02.610Z,9.308910
2022-09-03T09:49:01.418Z,9.309009
2022-09-03T09:50:01.518Z,9.308984
2022-09-03T09:51:01.894Z,9.309096
2022-09-03T09:52:01.523Z,9.309008
2022-09-03T09:53:01.560Z,9.308960
2022-09-03T09:54:02.117Z,9.308937
2022-09-03T09:55:01.496Z,9.309036
2022-09-03T09:56:01.458Z,9.308907
2022-09-03T09:57:01.533Z,9.308952
2022-09-03T09:58:01.455Z,9.309188
2022-09-03T09:59:01.462Z,9.308857
2022-09-03T10:00:01.441Z,9.308964
2022-09-03T10:01:01.413Z,9.309035
2022-09-03T10:02:01.493Z,9.309030
2022-09-03T10:03:01.612Z,9.308989
2022-09-03T10:04:01.476Z,9.309026
2022-09-03T10:05:01.459Z,9.308969
2022-09-03T10:06:01.436Z,9.309067
2022-09-03T10:07:01.386Z,9.309025
2022-09-03T10:08:01.625Z,9.308933
2022-09-03T10:09:01.284Z,9.308926
2022-09-03T10:10:01.253Z,9.309044
2022-09-03T10:11:01.268Z,9.308979
2022-09-03T10:12:01.250Z,9.309052
2022-09-03T10:13:01.374Z,9.308981
2022-09-03T10:14:01.254Z,9.308954
2022-09-03T10:15:01.400Z,9.309047
2022-09-03T10:16:01.460Z,9.309124
2022-09-03T10:17:01.405Z,9.309200
2022-09-03T10:18:01.438Z,9.309077
2022-09-03T10:19:01.315Z,9.309032
2022-09-03T10:20:01.455Z,9.309038
2022-09-03T10:21:01.328Z,9.309125
2022-09-03T10:22:01.349Z,9.309106
2022-09-03T10:23:01.306Z,9.309125
2022-09-03T10:24:04.937Z,9.309031
2022-09-03T10:25:03.310Z,9.309081
2022-09-03T10:26:01.282Z,9.309095
2022-09-03T10:27:01.275Z,9.309039
2022-09-03T10:28:01.484Z,9.309037
2022-09-03T10:29:01.293Z,9.309118
2022-09-03T10:30:01.325Z,9.309114
2022-09-03T10:31:01.176Z,9.309055
2022-09-03T10:32:01.101Z,9.309027
2022-09-03T10:33:01.235Z,9.308967
2022-09-03T10:34:01.092Z,9.309064
2022-09-03T10:35:01.091Z,9.309158
2022-09-03T10:36:01.129Z,9.309143
2022-09-03T10:37:01.089Z,9.309103
2022-09-03T10:38:01.090Z,9.309134
2022-09-03T10:39:01.206Z,9.309098
2022-09-03T10:40:01.228Z,9.309075
2022-09-03T10:41:01.250Z,9.309063
2022-09-03T10:42:01.691Z,9.309074
2022-09-03T10:43:01.189Z,9.309087
2022-09-03T10:44:01.140Z,9.309085
2022-09-03T10:45:01.167Z,9.309045
2022-09-03T10:46:01.217Z,9.309090
2022-09-03T10:47:01.102Z,9.309078
2022-09-03T10:48:01.156Z,9.308979
2022-09-03T10:49:01.092Z,9.309052
2022-09-03T10:50:01.107Z,9.309139
2022-09-03T10:51:01.080Z,9.309134
2022-09-03T10:52:01.133Z,9.309102
2022-09-03T10:53:01.139Z,9.309138
2022-09-03T10:54:00.983Z,9.309183
2022-09-03T10:55:00.951Z,9.309144
2022-09-03T10:56:01.055Z,9.309181
2022-09-03T10:57:01.143Z,9.309112
2022-09-03T10:58:01.106Z,9.309114
2022-09-03T10:59:01.023Z,9.309103
2022-09-03T11:00:01.090Z,9.309135
2022-09-03T11:01:01.103Z,9.309072
2022-09-03T11:02:01.075Z,9.309085
2022-09-03T11:03:01.124Z,9.309192
2022-09-03T11:04:01.056Z,9.309102
2022-09-03T11:05:00.987Z,9.309168
2022-09-03T11:06:01.043Z,9.309112
2022-09-03T11:07:00.990Z,9.309101
2022-09-03T11:08:01.000Z,9.309115
2022-09-03T11:09:04.463Z,9.309105
2022-09-03T11:10:03.025Z,9.309081
2022-09-03T11:11:00.939Z,9.309031
2022-09-03T11:12:00.955Z,9.309042
2022-09-03T11:13:01.000Z,9.309064
2022-09-03T11:14:00.973Z,9.309042
2022-09-03T11:15:00.922Z,9.309112
2022-09-03T11:16:00.855Z,9.309128
2022-09-03T11:17:00.822Z,9.309169
2022-09-03T11:18:00.976Z,9.309107
2022-09-03T11:19:00.911Z,9.309145
2022-09-03T11:20:00.939Z,9.309024
2022-09-03T11:21:00.884Z,9.309029
2022-09-03T11:22:00.901Z,9.308986
2022-09-03T11:23:00.874Z,9.309027
2022-09-03T11:24:00.955Z,9.308982
2022-09-03T11:25:00.926Z,9.309011
2022-09-03T11:26:00.895Z,9.309108
2022-09-03T11:27:00.916Z,9.309001
2022-09-03T11:28:00.886Z,9.309061
2022-09-03T11:29:00.923Z,9.309119
2022-09-03T11:30:00.837Z,9.309119
2022-09-03T11:31:32.807Z,9.309110
2022-09-03T11:32:00.717Z,9.309035
2022-09-03T11:33:32.781Z,9.309091
2022-09-03T11:34:33.129Z,9.309091
2022-09-03T11:35:00.655Z,9.309093
2022-09-03T11:36:00.761Z,9.309118
2022-09-03T11:37:00.672Z,9.309052
2022-09-03T11:38:00.778Z,9.309082
2022-09-03T11:39:00.803Z,9.309068
2022-09-03T11:40:00.901Z,9.309033
2022-09-03T11:41:00.766Z,9.309047
2022-09-03T11:42:00.753Z,9.309002
2022-09-03T11:43:00.747Z,9.309041
2022-09-03T11:44:04.458Z,9.308986
2022-09-03T11:45:01.781Z,9.309051
2022-09-03T11:46:00.801Z,9.309130
2022-09-03T11:47:00.741Z,9.309067
2022-09-03T11:48:00.709Z,9.309082
2022-09-03T11:49:00.690Z,9.309136
2022-09-03T11:50:00.752Z,9.309093
2022-09-03T11:51:00.680Z,9.309089
2022-09-03T11:52:00.984Z,9.309052
2022-09-03T11:53:00.655Z,9.309037
2022-09-03T11:54:00.793Z,9.309002
2022-09-03T11:55:00.657Z,9.309036
2022-09-03T11:56:00.622Z,9.309035
2022-09-03T11:57:00.626Z,9.308988
2022-09-03T11:58:00.630Z,9.309044
2022-09-03T11:59:00.532Z,9.309081
2022-09-03T12:00:00.530Z,9.309165
2022-09-03T12:01:00.591Z,9.309101
2022-09-03T12:02:00.630Z,9.309097
2022-09-03T12:03:00.552Z,9.309057
2022-09-03T12:04:00.520Z,9.309072
2022-09-03T12:05:00.695Z,9.309055
2022-09-03T12:06:00.660Z,9.309012
2022-09-03T12:07:00.613Z,9.309034
2022-09-03T12:08:02.357Z,9.309091
2022-09-03T12:09:00.581Z,9.309119
2022-09-03T12:10:00.567Z,9.309155
2022-09-03T12:11:00.608Z,9.309118
2022-09-03T12:12:00.545Z,9.309146
2022-09-03T12:13:00.584Z,9.309125
2022-09-03T12:14:00.508Z,9.309104
2022-09-03T12:15:00.567Z,9.309081
2022-09-03T12:16:00.601Z,9.309084
2022-09-03T12:17:01.579Z,9.309095
2022-09-03T12:18:00.544Z,9.309123
2022-09-03T12:19:00.382Z,9.309131
2022-09-03T12:20:00.436Z,9.309147
2022-09-03T12:21:00.399Z,9.309105
2022-09-03T12:22:00.400Z,9.309040
2022-09-03T12:23:00.471Z,9.309099
2022-09-03T12:24:00.454Z,9.309135
2022-09-03T12:25:00.438Z,9.309127
2022-09-03T12:26:00.486Z,9.309115
2022-09-03T12:27:00.505Z,9.309122
2022-09-03T12:28:00.427Z,9.309090
2022-09-03T12:29:00.452Z,9.309067
2022-09-03T12:30:00.602Z,9.309057
2022-09-03T12:31:00.504Z,9.309054
2022-09-03T12:32:00.447Z,9.309013
2022-09-03T12:33:00.451Z,9.309060
2022-09-03T12:34:00.405Z,9.308996
2022-09-03T12:35:00.393Z,9.309011
2022-09-03T12:36:00.768Z,9.309010
2022-09-03T12:37:00.263Z,9.309041
2022-09-03T12:38:09.278Z,9.309092
2022-09-03T12:39:17.578Z,9.309049
2022-09-03T12:40:07.346Z,9.309059
2022-09-03T12:42:02.261Z,9.309093
2022-09-03T12:44:02.297Z,9.309024
2022-09-03T12:45:00.219Z,9.309058
2022-09-03T12:46:16.047Z,9.309063
2022-09-03T12:48:02.312Z,9.308997
2022-09-03T12:50:02.193Z,9.309111
2022-09-03T12:51:46.744Z,9.309121
2022-09-03T12:52:05.461Z,9.309123
2022-09-03T12:53:02.175Z,9.309190
2022-09-03T12:54:00.267Z,9.309175
2022-09-03T12:55:00.252Z,9.309198
2022-09-03T12:56:00.242Z,9.309238
2022-09-03T12:57:00.238Z,9.309283
2022-09-03T12:58:02.567Z,9.309237
2022-09-03T12:59:01.242Z,9.309261
2022-09-03T13:00:00.245Z,9.309215
2022-09-03T13:01:00.355Z,9.309316
2022-09-03T13:02:00.326Z,9.309402
2022-09-03T13:03:00.089Z,9.309232
2022-09-03T13:04:00.070Z,9.309173
2022-09-03T13:05:00.105Z,9.309164